Terminal Aerodrome Forecast
Issued by NWS

Home | Current Version | Previous Version | Text Only | Print | Product List | Glossary On
Versions: 1 2 3 4 5 6 7 8 9 10 11 12 13 14 15 16 17 18 19
000
FTUS46 KSEW 221700
TAFPAE
TAF
KPAE 221720Z 2218/2318 VRB03KT P6SM FEW020 SCT050
     FM222000 VRB04KT P6SM SCT045 BKN150
     FM230900 13005KT P6SM BKN070 OVC120
     FM231500 17008KT P6SM -RA SCT025 OVC035=

USA.gov is the U.S. government's official web portal to all federal, state and local government web resources and services.